Time;durP1;ratioP1;P1;durP2;ratioP2;P2;SDS_P1;SDS_P2;PMS_P1;PMS_P2;Temp;Humidity;BMP_temperature;BMP_pressure;BME280_temperature;BME280_humidity;BME280_pressure;Samples;Min_cycle;Max_cycle;Signal;HPM_P1;HPM_P2
2023/04/09 00:01:33;;;;;;;;;;;;;;;4.84;97.44;93615.16;5027373;28;20401;-38
2023/04/09 00:03:59;;;;;;;;;;;;;;;4.96;96.59;93620.03;5025912;28;20341;-38
2023/04/09 00:06:25;;;;;;;;;;;;;;;4.93;96.41;93614.84;5020755;28;19914;-38
2023/04/09 00:08:50;;;;;;;;;;;;;;;4.79;97.10;93626.88;5020535;28;20375;-38
2023/04/09 00:11:15;;;;;;;;;;;;;;;4.82;97.16;93612.94;5023224;28;20465;-39
2023/04/09 00:13:40;;;;;;;;;;;;;;;4.82;97.03;93617.66;5020650;28;20429;-46
2023/04/09 00:16:06;;;;;;;;;;;;;;;4.68;97.70;93624.22;5027135;28;19921;-45
2023/04/09 00:18:31;;;;;;;;;;;;;;;4.49;98.77;93622.06;5024107;28;19913;-38
2023/04/09 00:20:57;;;;;;;;;;;;;;;4.23;100.00;93615.50;5022726;28;20008;-38
2023/04/09 00:23:22;;;;;;;;;;;;;;;4.40;100.00;93621.63;5019025;28;20322;-38
2023/04/09 00:25:47;;;;;;;;;;;;;;;4.50;99.36;93623.53;5020438;28;20044;-38
2023/04/09 00:28:12;;;;;;;;;;;;;;;4.56;98.69;93623.53;5027196;28;19925;-38
2023/04/09 00:30:38;;;;;;;;;;;;;;;4.49;98.95;93619.34;5031134;28;20704;-38
2023/04/09 00:33:03;;;;;;;;;;;;;;;4.29;99.62;93622.41;5030487;28;19917;-38
2023/04/09 00:35:28;;;;;;;;;;;;;;;4.02;100.00;93623.28;5032831;28;19917;-39
2023/04/09 00:37:54;;;;;;;;;;;;;;;3.99;100.00;93628.97;5027138;28;19924;-39
2023/04/09 00:40:19;;;;;;;;;;;;;;;3.98;100.00;93633.72;5030563;28;19921;-39
2023/04/09 00:42:44;;;;;;;;;;;;;;;4.06;100.00;93625.75;5030307;28;19944;-39
2023/04/09 00:45:10;;;;;;;;;;;;;;;4.01;100.00;93621.03;5031355;28;19913;-39
2023/04/09 00:47:35;;;;;;;;;;;;;;;4.08;100.00;93626.72;5028476;28;19979;-39
2023/04/09 00:50:01;;;;;;;;;;;;;;;4.05;100.00;93629.72;5021447;28;19917;-38
2023/04/09 00:52:26;;;;;;;;;;;;;;;4.21;100.00;93634.38;5029570;28;19915;-38
2023/04/09 00:54:52;;;;;;;;;;;;;;;4.10;100.00;93635.16;5027701;28;19925;-39
2023/04/09 00:57:17;;;;;;;;;;;;;;;4.19;100.00;93637.63;5032077;28;19913;-38
2023/04/09 00:59:43;;;;;;;;;;;;;;;4.15;100.00;93631.69;5023659;28;20004;-39
2023/04/09 01:02:08;;;;;;;;;;;;;;;4.07;100.00;93630.69;5025560;28;19998;-39
2023/04/09 01:04:33;;;;;;;;;;;;;;;4.32;100.00;93624.16;5018401;28;20357;-39
2023/04/09 01:07:19;;;;;;;;;;;;;;;4.21;100.00;93626.94;5027583;28;19960;-39
2023/04/09 01:10:11;;;;;;;;;;;;;;;4.26;100.00;93628.91;5068866;28;19917;-39
2023/04/09 01:12:47;;;;;;;;;;;;;;;4.33;100.00;93636.56;5023420;28;20012;-39
2023/04/09 01:15:13;;;;;;;;;;;;;;;4.38;100.00;93630.31;5029755;28;19978;-39
2023/04/09 01:17:41;;;;;;;;;;;;;;;4.41;100.00;93629.34;5021661;28;19979;-38
2023/04/09 01:20:08;;;;;;;;;;;;;;;4.57;100.00;93623.03;5025717;28;19925;-39
2023/04/09 01:22:52;;;;;;;;;;;;;;;4.54;100.00;93629.50;5028526;28;19917;-39
2023/04/09 01:25:35;;;;;;;;;;;;;;;4.68;100.00;93632.44;5028266;28;19920;-39
2023/04/09 01:28:09;;;;;;;;;;;;;;;4.81;100.00;93633.31;5023051;28;19921;-39
2023/04/09 01:30:34;;;;;;;;;;;;;;;4.89;100.00;93630.78;5054035;28;20067;-37
2023/04/09 01:32:59;;;;;;;;;;;;;;;4.96;100.00;93633.72;5053922;28;20450;-39
2023/04/09 01:35:25;;;;;;;;;;;;;;;4.92;99.97;93638.72;5021866;28;19939;-39
2023/04/09 01:37:51;;;;;;;;;;;;;;;4.67;100.00;93634.41;5058255;28;19917;-39
2023/04/09 01:40:16;;;;;;;;;;;;;;;4.75;100.00;93631.88;5039970;28;20059;-39
2023/04/09 01:42:41;;;;;;;;;;;;;;;4.78;100.00;93636.34;5023169;28;19925;-39
2023/04/09 01:45:07;;;;;;;;;;;;;;;4.80;99.71;93636.56;5029859;28;19913;-39
2023/04/09 01:47:32;;;;;;;;;;;;;;;4.65;100.00;93634.19;5028434;28;19988;-39
2023/04/09 01:49:57;;;;;;;;;;;;;;;4.70;100.00;93640.88;5062700;28;19917;-38
2023/04/09 01:52:23;;;;;;;;;;;;;;;4.74;100.00;93638.59;5061139;28;19917;-38
2023/04/09 01:54:48;;;;;;;;;;;;;;;4.82;100.00;93636.81;5029065;28;19920;-38
2023/04/09 01:57:13;;;;;;;;;;;;;;;4.63;100.00;93638.66;5029861;28;20396;-38
2023/04/09 01:59:38;;;;;;;;;;;;;;;4.51;100.00;93635.22;5026258;28;20007;-38
2023/04/09 02:02:08;;;;;;;;;;;;;;;4.48;100.00;93636.97;5019524;28;19933;-38
2023/04/09 02:04:40;;;;;;;;;;;;;;;4.57;100.00;93635.94;5058167;28;19944;-39
2023/04/09 02:07:10;;;;;;;;;;;;;;;4.67;100.00;93639.13;5044692;28;19926;-38
2023/04/09 02:09:35;;;;;;;;;;;;;;;4.60;100.00;93635.69;5024439;28;19929;-39
2023/04/09 02:12:03;;;;;;;;;;;;;;;4.65;100.00;93638.91;5023406;28;19921;-39
2023/04/09 02:14:29;;;;;;;;;;;;;;;4.63;100.00;93631.22;5022158;28;20329;-39
2023/04/09 02:16:54;;;;;;;;;;;;;;;4.61;100.00;93634.44;5031290;28;19946;-39
2023/04/09 02:19:19;;;;;;;;;;;;;;;4.61;100.00;93636.44;5053237;28;20614;-39
2023/04/09 02:21:45;;;;;;;;;;;;;;;4.80;100.00;93634.59;5024091;28;20429;-39
2023/04/09 02:24:10;;;;;;;;;;;;;;;4.83;100.00;93633.56;5021134;28;20437;-39
2023/04/09 02:26:35;;;;;;;;;;;;;;;4.94;100.00;93633.47;5020757;28;20397;-39
2023/04/09 02:29:01;;;;;;;;;;;;;;;5.00;100.00;93636.19;5027115;28;19921;-39
2023/04/09 02:31:26;;;;;;;;;;;;;;;4.93;100.00;93631.25;5026252;28;19948;-39
2023/04/09 02:33:53;;;;;;;;;;;;;;;5.03;100.00;93635.91;5024538;28;20317;-39
2023/04/09 02:36:18;;;;;;;;;;;;;;;5.00;100.00;93636.19;5025058;28;20317;-39
2023/04/09 02:38:43;;;;;;;;;;;;;;;5.01;100.00;93632.19;5023908;28;19914;-39
2023/04/09 02:41:08;;;;;;;;;;;;;;;5.01;100.00;93638.41;5022563;28;19917;-39
2023/04/09 02:43:34;;;;;;;;;;;;;;;4.78;100.00;93639.81;5018982;28;19920;-39
2023/04/09 02:45:59;;;;;;;;;;;;;;;4.83;100.00;93635.56;5018497;28;19924;-39
2023/04/09 02:48:24;;;;;;;;;;;;;;;4.94;100.00;93643.69;5018587;28;20321;-39
2023/04/09 02:50:50;;;;;;;;;;;;;;;5.09;100.00;93630.41;5031258;28;19952;-39
2023/04/09 02:53:15;;;;;;;;;;;;;;;5.11;99.65;93636.13;5024357;28;20034;-39
2023/04/09 02:55:40;;;;;;;;;;;;;;;5.03;99.84;93635.16;5029816;28;20404;-39
2023/04/09 02:58:05;;;;;;;;;;;;;;;4.86;100.00;93634.53;5028461;28;19935;-39
2023/04/09 03:00:31;;;;;;;;;;;;;;;4.79;100.00;93637.81;5027128;28;19944;-39
2023/04/09 03:02:56;;;;;;;;;;;;;;;4.78;100.00;93641.81;5022797;28;20401;-39
2023/04/09 03:05:22;;;;;;;;;;;;;;;4.90;100.00;93637.75;5017740;28;19917;-39
2023/04/09 03:07:48;;;;;;;;;;;;;;;4.94;100.00;93643.69;5025404;28;20012;-39
2023/04/09 03:10:13;;;;;;;;;;;;;;;5.04;100.00;93644.88;5029820;28;20012;-39
2023/04/09 03:12:38;;;;;;;;;;;;;;;4.93;100.00;93636.72;5028598;28;20005;-39
2023/04/09 03:15:04;;;;;;;;;;;;;;;4.79;100.00;93632.34;5031090;28;19913;-38
2023/04/09 03:17:30;;;;;;;;;;;;;;;4.75;100.00;93637.34;5030341;28;19917;-39
2023/04/09 03:19:56;;;;;;;;;;;;;;;4.67;100.00;93631.69;5023673;28;19928;-38
2023/04/09 03:22:21;;;;;;;;;;;;;;;4.84;100.00;93631.56;5015912;28;20486;-39
2023/04/09 03:24:46;;;;;;;;;;;;;;;4.85;100.00;93627.59;5013838;28;19929;-39
2023/04/09 03:27:12;;;;;;;;;;;;;;;4.83;100.00;93630.09;5024508;28;19929;-39
2023/04/09 03:29:37;;;;;;;;;;;;;;;4.70;100.00;93627.19;5026737;28;20063;-39
2023/04/09 03:32:02;;;;;;;;;;;;;;;4.66;100.00;93627.44;5030816;28;19917;-39
2023/04/09 03:34:27;;;;;;;;;;;;;;;4.86;100.00;93621.59;5030239;28;20306;-39
2023/04/09 03:36:53;;;;;;;;;;;;;;;4.91;100.00;93631.03;5029428;28;19917;-39
2023/04/09 03:39:18;;;;;;;;;;;;;;;4.83;100.00;93633.56;5030922;28;20560;-39
2023/04/09 03:41:43;;;;;;;;;;;;;;;4.97;100.00;93645.41;5021902;28;19913;-39
2023/04/09 03:44:09;;;;;;;;;;;;;;;5.09;100.00;93641.38;5030755;28;19923;-39
2023/04/09 03:46:34;;;;;;;;;;;;;;;5.20;100.00;93644.00;5025894;28;20004;-39
2023/04/09 03:48:59;;;;;;;;;;;;;;;5.12;100.00;93643.06;5022185;28;19921;-39
2023/04/09 03:51:26;;;;;;;;;;;;;;;5.05;100.00;93641.63;5022466;28;19920;-39
2023/04/09 03:53:51;;;;;;;;;;;;;;;5.04;100.00;93647.59;5025139;28;20007;-39
2023/04/09 03:56:16;;;;;;;;;;;;;;;5.28;100.00;93650.41;5027477;28;20045;-39
2023/04/09 03:58:41;;;;;;;;;;;;;;;5.28;99.84;93645.66;5022520;28;19918;-39
2023/04/09 04:01:07;;;;;;;;;;;;;;;5.26;99.57;93641.97;5031137;28;19983;-39
2023/04/09 04:03:32;;;;;;;;;;;;;;;5.09;100.00;93653.03;5020522;28;19932;-39
2023/04/09 04:06:01;;;;;;;;;;;;;;;5.10;100.00;93657.25;5024326;28;20310;-40
2023/04/09 04:08:26;;;;;;;;;;;;;;;5.37;99.32;93655.59;5026943;28;20397;-39
2023/04/09 04:10:52;;;;;;;;;;;;;;;5.32;98.93;93648.16;5021848;28;19996;-39
2023/04/09 04:13:17;;;;;;;;;;;;;;;5.27;99.21;93644.19;5024921;28;20325;-39
2023/04/09 04:15:42;;;;;;;;;;;;;;;5.32;99.23;93648.16;5025618;28;20011;-39
2023/04/09 04:18:08;;;;;;;;;;;;;;;5.30;99.65;93650.66;5029264;28;20401;-39
2023/04/09 04:20:33;;;;;;;;;;;;;;;5.50;98.04;93660.44;5023468;28;19917;-39
2023/04/09 04:22:58;;;;;;;;;;;;;;;5.53;97.67;93656.69;5023772;28;20003;-39
2023/04/09 04:25:24;;;;;;;;;;;;;;;5.47;97.43;93661.47;5029212;28;19995;-39
2023/04/09 04:27:49;;;;;;;;;;;;;;;5.50;97.71;93649.50;5029876;28;20305;-39
2023/04/09 04:30:15;;;;;;;;;;;;;;;5.49;98.90;93645.25;5026122;28;19917;-39
2023/04/09 04:32:40;;;;;;;;;;;;;;;5.67;97.61;93661.78;5024852;28;20407;-39
2023/04/09 04:35:05;;;;;;;;;;;;;;;5.75;96.25;93651.75;5027548;28;20392;-39
2023/04/09 04:37:31;;;;;;;;;;;;;;;5.74;96.05;93655.72;5031362;28;19917;-39
2023/04/09 04:39:56;;;;;;;;;;;;;;;5.71;96.04;93659.50;5027486;28;19939;-39
2023/04/09 04:42:22;;;;;;;;;;;;;;;5.66;96.07;93654.06;5027276;28;19921;-39
2023/04/09 04:44:47;;;;;;;;;;;;;;;5.53;97.08;93654.69;5030858;28;19928;-39
2023/04/09 04:47:12;;;;;;;;;;;;;;;5.64;94.73;93649.13;5025268;28;19995;-39
2023/04/09 04:49:37;;;;;;;;;;;;;;;5.55;94.97;93656.91;5030107;28;19917;-39
2023/04/09 04:52:03;;;;;;;;;;;;;;;5.48;95.04;93652.00;5023306;28;20015;-39
2023/04/09 04:54:28;;;;;;;;;;;;;;;5.49;94.81;93658.94;5027378;28;19919;-39
2023/04/09 04:56:53;;;;;;;;;;;;;;;5.39;96.41;93656.53;5029166;28;19917;-38
2023/04/09 04:59:19;;;;;;;;;;;;;;;5.51;96.75;93659.94;5031063;28;20536;-39
2023/04/09 05:01:44;;;;;;;;;;;;;;;5.60;96.23;93656.13;5027659;28;19921;-39
2023/04/09 05:04:10;;;;;;;;;;;;;;;5.61;96.28;93655.59;5042264;28;20454;-39
2023/04/09 05:06:35;;;;;;;;;;;;;;;5.60;93.95;93658.88;5034123;28;19916;-39
2023/04/09 05:09:00;;;;;;;;;;;;;;;5.53;93.05;93660.16;5034758;28;19978;-39
2023/04/09 05:11:26;;;;;;;;;;;;;;;5.69;92.08;93664.75;5029357;28;19917;-39
2023/04/09 05:13:51;;;;;;;;;;;;;;;5.63;92.81;93664.06;5025143;28;20428;-39
2023/04/09 05:16:17;;;;;;;;;;;;;;;5.87;92.40;93666.09;5026735;28;20512;-39
2023/04/09 05:18:42;;;;;;;;;;;;;;;5.97;91.15;93656.31;5026379;28;19980;-39
2023/04/09 05:21:08;;;;;;;;;;;;;;;6.03;90.03;93660.47;5020264;28;19917;-39
2023/04/09 05:23:33;;;;;;;;;;;;;;;5.87;90.47;93657.88;5023902;28;20393;-39
2023/04/09 05:25:58;;;;;;;;;;;;;;;5.86;91.41;93662.63;5025868;28;19960;-39
2023/04/09 05:28:23;;;;;;;;;;;;;;;5.91;92.12;93667.31;5024329;28;19925;-39
2023/04/09 05:30:49;;;;;;;;;;;;;;;6.11;90.51;93661.38;5024191;28;19913;-38
2023/04/09 05:33:14;;;;;;;;;;;;;;;6.30;90.11;93661.44;5027475;28;19917;-37
2023/04/09 05:35:40;;;;;;;;;;;;;;;6.28;89.17;93652.22;5027431;28;20433;-38
2023/04/09 05:38:05;;;;;;;;;;;;;;;6.44;88.93;93660.25;5022181;28;20312;-38
2023/04/09 05:40:30;;;;;;;;;;;;;;;6.43;88.39;93650.53;5026732;28;20334;-39
2023/04/09 05:42:55;;;;;;;;;;;;;;;6.25;87.37;93656.00;5020184;28;20329;-39
2023/04/09 05:45:21;;;;;;;;;;;;;;;6.52;86.93;93657.69;5026298;28;19957;-39
2023/04/09 05:47:46;;;;;;;;;;;;;;;6.46;85.40;93660.47;5028193;28;19995;-39
2023/04/09 05:50:11;;;;;;;;;;;;;;;6.09;87.72;93658.41;5025867;28;19921;-38
2023/04/09 05:52:37;;;;;;;;;;;;;;;6.27;87.49;93662.47;5020376;28;19924;-38
2023/04/09 05:55:02;;;;;;;;;;;;;;;6.34;88.01;93667.38;5022354;28;19921;-39
2023/04/09 05:57:29;;;;;;;;;;;;;;;6.57;87.49;93660.34;5031970;28;19917;-37
2023/04/09 05:59:54;;;;;;;;;;;;;;;6.65;85.15;93663.97;5024468;28;19917;-39
2023/04/09 06:02:20;;;;;;;;;;;;;;;6.70;84.68;93656.94;5023104;28;20417;-39
2023/04/09 06:04:45;;;;;;;;;;;;;;;6.65;84.53;93661.25;5022939;28;20316;-39
2023/04/09 06:07:10;;;;;;;;;;;;;;;6.79;85.14;93670.31;5026216;28;19960;-39
2023/04/09 06:09:36;;;;;;;;;;;;;;;7.06;84.80;93657.47;5028391;28;19978;-39
2023/04/09 06:12:02;;;;;;;;;;;;;;;7.37;82.25;93660.22;5035712;28;19929;-37
2023/04/09 06:14:28;;;;;;;;;;;;;;;7.45;81.35;93663.84;5029821;28;19917;-38
2023/04/09 06:16:53;;;;;;;;;;;;;;;8.09;82.00;93661.78;5027300;28;19940;-38
2023/04/09 06:19:18;;;;;;;;;;;;;;;8.04;77.16;93659.13;5020122;28;19917;-38
2023/04/09 06:21:44;;;;;;;;;;;;;;;8.09;76.73;93659.03;5020199;28;20388;-38
2023/04/09 06:24:09;;;;;;;;;;;;;;;8.52;75.44;93664.25;5027322;28;19918;-38
2023/04/09 06:26:35;;;;;;;;;;;;;;;8.87;74.85;93663.78;5025084;28;19922;-38
2023/04/09 06:29:00;;;;;;;;;;;;;;;9.38;73.27;93668.91;5026898;28;19925;-38
2023/04/09 06:31:26;;;;;;;;;;;;;;;9.44;71.09;93666.81;5030868;28;19921;-38
2023/04/09 06:33:51;;;;;;;;;;;;;;;8.77;72.54;93662.00;5033134;28;19913;-38
2023/04/09 06:36:16;;;;;;;;;;;;;;;7.98;75.75;93664.72;5020366;28;20449;-38
2023/04/09 06:38:42;;;;;;;;;;;;;;;8.14;75.43;93673.94;5030845;28;19921;-43
2023/04/09 06:41:07;;;;;;;;;;;;;;;8.06;75.78;93675.81;5029076;28;19922;-43
2023/04/09 06:43:33;;;;;;;;;;;;;;;7.62;78.67;93675.31;5021566;28;19921;-43
2023/04/09 06:45:58;;;;;;;;;;;;;;;7.55;78.95;93675.94;5035033;28;19917;-42
2023/04/09 06:48:23;;;;;;;;;;;;;;;7.69;78.32;93681.47;5023229;28;19945;-43
2023/04/09 06:50:49;;;;;;;;;;;;;;;7.32;79.57;93683.03;5027338;28;19913;-43
2023/04/09 06:53:15;;;;;;;;;;;;;;;7.28;79.63;93682.59;5026323;28;19913;-43
2023/04/09 06:55:40;;;;;;;;;;;;;;;6.97;82.42;93680.56;5024638;28;19917;-43
2023/04/09 06:58:06;;;;;;;;;;;;;;;7.35;80.48;93681.25;5030538;28;19920;-43
2023/04/09 07:00:31;;;;;;;;;;;;;;;7.38;79.91;93680.22;5017764;28;20352;-39
2023/04/09 07:02:56;;;;;;;;;;;;;;;7.62;79.04;93693.81;5026423;28;20405;-39
2023/04/09 07:05:22;;;;;;;;;;;;;;;7.35;79.41;93690.22;5022566;28;19967;-39
2023/04/09 07:07:48;;;;;;;;;;;;;;;7.35;81.37;93689.47;5023579;28;20685;-39
2023/04/09 07:10:13;;;;;;;;;;;;;;;7.41;79.04;93690.13;5018282;28;19948;-38
2023/04/09 07:12:39;;;;;;;;;;;;;;;7.40;79.84;93694.91;5022092;28;20013;-38
2023/04/09 07:15:05;;;;;;;;;;;;;;;7.03;81.58;93696.94;5024279;28;20345;-38
2023/04/09 07:17:30;;;;;;;;;;;;;;;6.84;82.51;93691.44;5021552;28;19951;-38
2023/04/09 07:19:55;;;;;;;;;;;;;;;6.88;83.36;93697.38;5022351;28;19978;-38
2023/04/09 07:22:21;;;;;;;;;;;;;;;7.24;82.88;93684.91;5023585;28;19924;-38
2023/04/09 07:24:52;;;;;;;;;;;;;;;7.67;80.06;93695.00;5023306;28;19971;-38
2023/04/09 07:27:17;;;;;;;;;;;;;;;7.78;80.13;93689.31;5026133;28;19926;-38
2023/04/09 07:29:43;;;;;;;;;;;;;;;7.62;78.62;93694.53;5026032;28;19932;-38
2023/04/09 07:32:08;;;;;;;;;;;;;;;7.46;78.72;93694.81;5030832;28;20607;-38
2023/04/09 07:34:34;;;;;;;;;;;;;;;7.22;79.71;93708.66;5026952;28;19917;-38
2023/04/09 07:36:59;;;;;;;;;;;;;;;7.28;79.77;93699.06;5026231;28;20114;-38
2023/04/09 07:39:24;;;;;;;;;;;;;;;7.31;80.86;93697.28;5023144;28;19924;-38
2023/04/09 07:41:50;;;;;;;;;;;;;;;7.48;78.84;93697.78;5024967;28;19924;-38
2023/04/09 07:44:15;;;;;;;;;;;;;;;7.70;77.62;93710.44;5027453;28;20291;-38
2023/04/09 07:46:41;;;;;;;;;;;;;;;7.70;78.03;93696.69;5019619;28;19913;-38
2023/04/09 07:49:06;;;;;;;;;;;;;;;7.63;78.37;93704.28;5052174;28;19956;-38
2023/04/09 07:51:31;;;;;;;;;;;;;;;7.91;78.35;93703.09;5025478;28;20461;-38
2023/04/09 07:53:57;;;;;;;;;;;;;;;8.20;79.42;93704.84;5013722;28;19921;-38
2023/04/09 07:56:22;;;;;;;;;;;;;;;8.55;75.51;93712.72;5017787;28;19960;-38
2023/04/09 07:58:50;;;;;;;;;;;;;;;8.70;73.86;93706.69;5011333;28;19927;-38
2023/04/09 08:01:16;;;;;;;;;;;;;;;8.73;73.32;93709.13;5014509;28;20320;-39
2023/04/09 08:03:41;;;;;;;;;;;;;;;8.59;73.35;93715.16;5015238;28;19925;-38
2023/04/09 08:06:07;;;;;;;;;;;;;;;9.10;72.68;93711.59;5010529;28;19921;-38
2023/04/09 08:08:32;;;;;;;;;;;;;;;9.68;70.89;93718.88;5011111;28;19926;-38
2023/04/09 08:10:57;;;;;;;;;;;;;;;9.98;68.83;93716.41;5009371;28;19921;-38
2023/04/09 08:13:24;;;;;;;;;;;;;;;10.73;65.30;93710.72;5016310;28;19940;-38
2023/04/09 08:15:49;;;;;;;;;;;;;;;11.71;61.53;93713.19;5024232;28;19956;-38
2023/04/09 08:18:14;;;;;;;;;;;;;;;12.54;57.16;93704.94;5024466;28;20396;-39
2023/04/09 08:20:43;;;;;;;;;;;;;;;12.90;55.80;93697.13;5030841;28;19917;-39
2023/04/09 08:23:09;;;;;;;;;;;;;;;13.33;54.17;93702.38;5017958;28;19971;-39
2023/04/09 08:25:35;;;;;;;;;;;;;;;12.92;54.87;93700.06;5023538;28;20324;-39
2023/04/09 08:28:00;;;;;;;;;;;;;;;14.13;52.83;93696.75;5030421;28;19921;-39
2023/04/09 08:30:28;;;;;;;;;;;;;;;15.72;45.97;93695.94;5025708;28;19975;-39
2023/04/09 08:32:53;;;;;;;;;;;;;;;14.95;46.44;93700.88;5028339;28;20020;-39
2023/04/09 08:35:18;;;;;;;;;;;;;;;14.12;48.60;93692.50;5020422;28;19928;-39
2023/04/09 08:37:44;;;;;;;;;;;;;;;14.70;46.04;93705.03;5023211;28;19944;-39
2023/04/09 08:40:10;;;;;;;;;;;;;;;15.32;42.26;93696.22;5029778;28;20511;-39
2023/04/09 08:42:36;;;;;;;;;;;;;;;15.31;43.75;93688.44;5025873;28;19920;-39
2023/04/09 08:45:04;;;;;;;;;;;;;;;15.83;40.83;93687.06;5032358;28;19917;-39
2023/04/09 08:47:31;;;;;;;;;;;;;;;14.25;43.69;93690.16;5025935;28;19960;-38
2023/04/09 08:49:56;;;;;;;;;;;;;;;14.91;43.28;93689.44;5022464;28;20452;-39
2023/04/09 08:52:29;;;;;;;;;;;;;;;16.04;41.59;93676.19;5023497;28;20479;-39
2023/04/09 08:54:55;;;;;;;;;;;;;;;17.24;38.19;93676.22;5024685;28;20420;-39
2023/04/09 08:57:20;;;;;;;;;;;;;;;16.74;39.54;93669.69;5036360;28;19925;-39
2023/04/09 08:59:46;;;;;;;;;;;;;;;16.46;37.78;93675.91;5023484;28;20013;-39
2023/04/09 09:02:12;;;;;;;;;;;;;;;15.88;39.44;93669.34;5026516;28;19964;-39
2023/04/09 09:04:47;;;;;;;;;;;;;;;15.00;41.90;93676.91;5022070;28;20801;-39
2023/04/09 09:07:13;;;;;;;;;;;;;;;16.26;40.71;93661.19;5030192;28;19932;-39
2023/04/09 09:09:51;;;;;;;;;;;;;;;16.32;38.14;93674.84;5021523;28;19921;-39
2023/04/09 09:12:35;;;;;;;;;;;;;;;14.97;39.95;93672.50;5031043;28;19913;-39
2023/04/09 09:15:01;;;;;;;;;;;;;;;15.42;40.50;93666.41;5023106;28;19921;-39
2023/04/09 09:17:26;;;;;;;;;;;;;;;15.85;38.03;93662.88;5023329;28;19917;-39
2023/04/09 09:19:52;;;;;;;;;;;;;;;17.04;36.80;93651.69;5016247;28;19921;-39
2023/04/09 09:22:17;;;;;;;;;;;;;;;18.22;34.14;93653.13;5054268;28;20115;-39
2023/04/09 09:24:49;;;;;;;;;;;;;;;18.65;32.40;93657.53;5034583;28;19925;-39
2023/04/09 09:27:39;;;;;;;;;;;;;;;17.98;33.56;93649.38;5011426;28;20458;-39
2023/04/09 09:30:05;;;;;;;;;;;;;;;17.52;33.84;93651.72;5019081;28;19921;-39
2023/04/09 09:32:33;;;;;;;;;;;;;;;18.56;33.13;93658.31;5023184;28;19973;-40
2023/04/09 09:35:02;;;;;;;;;;;;;;;18.38;32.97;93654.25;5026898;28;20666;-39
2023/04/09 09:37:28;;;;;;;;;;;;;;;19.36;31.73;93651.78;5023625;28;19917;-39
2023/04/09 09:39:54;;;;;;;;;;;;;;;18.65;32.02;93644.28;5028465;28;20102;-39
2023/04/09 09:42:19;;;;;;;;;;;;;;;18.53;36.02;93645.53;5030660;28;20035;-39
2023/04/09 09:44:45;;;;;;;;;;;;;;;17.81;34.88;93641.22;5029986;28;20000;-39
2023/04/09 09:47:12;;;;;;;;;;;;;;;16.91;35.46;93636.13;5056323;28;19925;-39
2023/04/09 09:49:37;;;;;;;;;;;;;;;16.72;35.79;93638.88;5027604;28;19920;-39
2023/04/09 09:52:02;;;;;;;;;;;;;;;15.14;37.71;93647.47;5032358;28;19925;-39
2023/04/09 09:54:28;;;;;;;;;;;;;;;14.83;38.00;93647.09;5053852;28;19921;-39
2023/04/09 09:56:54;;;;;;;;;;;;;;;14.65;40.58;93639.28;5048916;28;19964;-39
2023/04/09 09:59:23;;;;;;;;;;;;;;;14.81;39.50;93627.44;5018336;28;20017;-39
2023/04/09 10:02:15;;;;;;;;;;;;;;;15.60;38.88;93619.81;5017052;28;19957;-39
2023/04/09 10:04:41;;;;;;;;;;;;;;;15.58;37.75;93619.66;5021336;28;19925;-39
2023/04/09 10:07:07;;;;;;;;;;;;;;;14.79;40.81;93626.56;5016276;28;19921;-38
2023/04/09 10:09:37;;;;;;;;;;;;;;;14.97;40.79;93620.41;5024387;28;20557;-38
2023/04/09 10:12:03;;;;;;;;;;;;;;;16.05;37.33;93621.22;5057602;28;20393;-38
2023/04/09 10:14:29;;;;;;;;;;;;;;;15.98;37.63;93622.06;5056834;28;19917;-39
2023/04/09 10:16:54;;;;;;;;;;;;;;;15.70;39.45;93613.00;5021507;28;19921;-38
2023/04/09 10:19:21;;;;;;;;;;;;;;;15.27;39.59;93621.38;5021110;28;19933;-38
2023/04/09 10:21:46;;;;;;;;;;;;;;;15.50;38.98;93614.22;5050009;28;19964;-38
2023/04/09 10:24:11;;;;;;;;;;;;;;;16.66;36.41;93614.06;5024835;28;20479;-39
2023/04/09 10:26:40;;;;;;;;;;;;;;;17.17;35.42;93610.13;5051371;28;19917;-39
2023/04/09 10:29:07;;;;;;;;;;;;;;;17.60;34.40;93608.34;5026016;28;19925;-39
2023/04/09 10:31:46;;;;;;;;;;;;;;;17.69;34.50;93604.06;5025326;28;19917;-39
2023/04/09 10:34:13;;;;;;;;;;;;;;;17.02;37.08;93607.63;5021862;28;19921;-38
2023/04/09 10:36:38;;;;;;;;;;;;;;;16.93;35.35;93611.19;5032745;28;20010;-39
2023/04/09 10:39:10;;;;;;;;;;;;;;;17.82;37.29;93607.09;5021452;28;19917;-39
2023/04/09 10:41:36;;;;;;;;;;;;;;;19.39;36.55;93598.09;5024246;28;20593;-39
2023/04/09 10:44:04;;;;;;;;;;;;;;;21.50;28.20;93598.91;5024535;28;19932;-39
2023/04/09 10:46:33;;;;;;;;;;;;;;;21.02;27.30;93596.13;5014656;28;20262;-39
2023/04/09 10:49:12;;;;;;;;;;;;;;;19.76;30.86;93598.31;5024199;28;19925;-39
2023/04/09 10:51:38;;;;;;;;;;;;;;;20.05;27.63;93589.59;5024973;28;20366;-39
2023/04/09 10:54:27;;;;;;;;;;;;;;;19.53;28.52;93595.47;5019796;28;19925;-39
2023/04/09 10:57:08;;;;;;;;;;;;;;;18.27;29.26;93594.13;5018864;28;19914;-39
2023/04/09 10:59:34;;;;;;;;;;;;;;;17.47;31.99;93589.25;5022651;28;19921;-40
2023/04/09 11:01:59;;;;;;;;;;;;;;;17.18;32.85;93600.44;5013553;28;20409;-39
2023/04/09 11:04:27;;;;;;;;;;;;;;;16.83;32.55;93590.19;5022879;28;19964;-39
2023/04/09 11:06:52;;;;;;;;;;;;;;;16.52;32.78;93587.22;5024481;28;20012;-40
2023/04/09 11:09:17;;;;;;;;;;;;;;;16.19;34.54;93581.25;5046625;28;20465;-39
2023/04/09 11:11:43;;;;;;;;;;;;;;;15.28;35.94;93586.66;5015820;28;19921;-39
2023/04/09 11:14:08;;;;;;;;;;;;;;;15.09;37.76;93582.44;5023180;28;19917;-39
2023/04/09 11:16:33;;;;;;;;;;;;;;;14.79;36.46;93579.31;5024981;28;19964;-39
2023/04/09 11:18:59;;;;;;;;;;;;;;;14.97;36.11;93583.53;5017041;28;20008;-39
2023/04/09 11:21:27;;;;;;;;;;;;;;;15.05;36.41;93579.34;5020148;28;19921;-39
2023/04/09 11:23:52;;;;;;;;;;;;;;;15.18;35.45;93576.22;5047420;28;19917;-38
2023/04/09 11:26:46;;;;;;;;;;;;;;;15.88;34.77;93586.56;5021650;28;20321;-38
2023/04/09 11:29:11;;;;;;;;;;;;;;;14.89;35.99;93582.88;5023124;28;19929;-39
2023/04/09 11:31:37;;;;;;;;;;;;;;;14.61;36.40;93575.78;5019420;28;19917;-38
2023/04/09 11:34:02;;;;;;;;;;;;;;;14.47;38.32;93582.97;5030337;28;19917;-39
2023/04/09 11:36:27;;;;;;;;;;;;;;;14.05;38.72;93579.47;5025008;28;19936;-38
2023/04/09 11:38:56;;;;;;;;;;;;;;;13.88;39.06;93580.13;5026467;28;19921;-39
2023/04/09 11:41:34;;;;;;;;;;;;;;;13.59;40.07;93577.03;5024769;28;19991;-38
2023/04/09 11:44:01;;;;;;;;;;;;;;;13.56;40.33;93569.09;5021238;28;19964;-38
2023/04/09 11:46:26;;;;;;;;;;;;;;;13.87;39.15;93573.13;5023971;28;19967;-39
2023/04/09 11:48:52;;;;;;;;;;;;;;;13.77;39.82;93569.50;5025512;28;20356;-39
2023/04/09 11:51:17;;;;;;;;;;;;;;;13.79;40.49;93566.91;5021234;28;19921;-39
2023/04/09 11:53:42;;;;;;;;;;;;;;;14.02;40.62;93561.91;5028268;28;19979;-39
2023/04/09 11:56:08;;;;;;;;;;;;;;;14.69;40.03;93562.53;5034496;28;19925;-38
2023/04/09 11:58:33;;;;;;;;;;;;;;;13.83;38.66;93552.63;5057026;28;19968;-38
2023/04/09 12:00:58;;;;;;;;;;;;;;;13.78;40.54;93553.59;5051739;28;20835;-38
2023/04/09 12:03:28;;;;;;;;;;;;;;;13.60;40.27;93559.06;5023500;28;19917;-38
2023/04/09 12:05:53;;;;;;;;;;;;;;;14.15;39.42;93558.06;5029008;28;19925;-38
2023/04/09 12:08:21;;;;;;;;;;;;;;;14.72;39.90;93555.84;5023084;28;20010;-38
2023/04/09 12:10:46;;;;;;;;;;;;;;;14.82;41.51;93561.47;5025547;28;19940;-38
2023/04/09 12:13:12;;;;;;;;;;;;;;;14.17;40.13;93553.44;5022120;28;20362;-38
2023/04/09 12:15:42;;;;;;;;;;;;;;;13.31;38.96;93554.47;5028200;28;20044;-39
2023/04/09 12:18:08;;;;;;;;;;;;;;;13.87;40.34;93556.47;5061334;28;20348;-39
2023/04/09 12:20:34;;;;;;;;;;;;;;;13.28;40.05;93552.81;5028358;28;19917;-38
2023/04/09 12:23:02;;;;;;;;;;;;;;;13.05;40.06;93541.88;5024807;28;19928;-39
2023/04/09 12:25:27;;;;;;;;;;;;;;;13.14;39.44;93551.63;5018048;28;19929;-39
2023/04/09 12:27:54;;;;;;;;;;;;;;;13.30;40.64;93550.97;5018244;28;19933;-39
2023/04/09 12:30:20;;;;;;;;;;;;;;;13.74;40.65;93548.44;5017409;28;19928;-38
2023/04/09 12:32:45;;;;;;;;;;;;;;;13.88;38.84;93546.13;5022243;28;19917;-39
2023/04/09 12:35:10;;;;;;;;;;;;;;;14.04;40.89;93537.06;5020110;28;19998;-39
2023/04/09 12:37:36;;;;;;;;;;;;;;;14.36;40.33;93539.00;5026577;28;19998;-39
2023/04/09 12:40:02;;;;;;;;;;;;;;;14.21;38.80;93539.13;5032684;28;20340;-38
2023/04/09 12:42:27;;;;;;;;;;;;;;;14.11;38.29;93538.31;5023552;28;19921;-38
2023/04/09 12:44:52;;;;;;;;;;;;;;;13.93;37.40;93534.03;5025956;28;19943;-39
2023/04/09 12:47:18;;;;;;;;;;;;;;;13.75;38.08;93533.28;5029544;28;19921;-38